Tizayuca Airport

Jump to: basic info | weather | runways | comments

Related pages: nearby airports | nearby navaids | notams | map

Basic information (top)

Codes: MM28
Location: lon 19.874001, lat -98.943604, elev 7,600 ft / 2,316 m msl
Status: small_airport

Weather (top)

Current conditions for Licenciado Benito Juarez International Airport 27nm (50km) SSW (rec'd 2014/04/17 23:53Z):

MMMX 172353Z 18007KT 9SM FEW020CB BKN080 BKN200 23/06 A3020 NOSIG RMK SLP055 57004 906 8/363 HZY DSNT PCPN NE

Airport forecast for Licenciado Benito Juarez International Airport 27nm (50km) SSW (rec'd 2014/04/17 00:13Z):

TAF MMMX 172306Z 1800/1906 20010KT 6SM HZ VC RA SCT020CB BKN080 TX26/1821Z TN14/1812Z 
      TEMPO 1800/1804 5SM TSRA BKN020CB 
     FM180600 00000KT P6SM SCT080 
     FM181200 07005KT P6SM SCT020 
     FM181800 15010KT P6SM SCT020 SCT080 
     FM182100 20010KT 6SM HZ VC RA SCT020CB BKN080 
      TEMPO 1822/1902 3SM TSRA BKN020CB

Runways (top)

01/19: 4,235 x 80 ft (1,291 x 24 m) — paved — not lighted

Latest comments (top)

No comments yet for Tizayuca Airport

More... (top)

See also NOTAMs and nearby airports and navaids, or visit the Tizayuca Airport page at the main OurAirports website..